Time;durP1;ratioP1;P1;durP2;ratioP2;P2;SDS_P1;SDS_P2;PMS_P1;PMS_P2;Temp;Humidity;BMP_temperature;BMP_pressure;BME280_temperature;BME280_humidity;BME280_pressure;Samples;Min_cycle;Max_cycle;Signal;HPM_P1;HPM_P2
2023/08/21 00:00:03;;;;;;;7.43;6.00;;;;;;;26.11;79.59;100747.25;5112132;28;20162;-64
2023/08/21 00:02:29;;;;;;;6.33;5.50;;;;;;;26.10;79.77;100743.50;5096582;28;20201;-65
2023/08/21 00:04:55;;;;;;;7.37;6.43;;;;;;;26.10;79.99;100739.81;5091280;28;20454;-64
2023/08/21 00:07:20;;;;;;;8.10;5.90;;;;;;;26.10;79.45;100743.50;5093812;28;20240;-64
2023/08/21 00:09:45;;;;;;;6.07;5.47;;;;;;;26.10;79.79;100740.63;5091594;28;20712;-65
2023/08/21 00:12:11;;;;;;;8.00;6.50;;;;;;;26.10;79.92;100739.81;5093277;28;20287;-64
2023/08/21 00:14:36;;;;;;;6.60;6.00;;;;;;;26.09;79.87;100733.19;5091094;28;20198;-65
2023/08/21 00:17:05;;;;;;;8.03;5.83;;;;;;;26.08;80.07;100734.44;5111861;27;20223;-64
2023/08/21 00:19:31;;;;;;;8.20;6.40;;;;;;;26.08;79.33;100734.44;5110577;27;20240;-64
2023/08/21 00:21:57;;;;;;;6.73;5.47;;;;;;;26.08;79.11;100740.22;5105725;27;20498;-64
2023/08/21 00:24:23;;;;;;;7.43;5.90;;;;;;;26.08;79.87;100731.53;5092107;28;20419;-64
2023/08/21 00:26:48;;;;;;;7.30;6.07;;;;;;;26.08;79.95;100727.81;5089628;28;20248;-64
2023/08/21 00:29:13;;;;;;;7.77;6.00;;;;;;;26.09;79.32;100729.50;5091152;28;20182;-65
2023/08/21 00:31:39;;;;;;;8.20;5.70;;;;;;;26.08;79.25;100730.69;5103319;27;20184;-64
2023/08/21 00:34:05;;;;;;;7.30;5.87;;;;;;;26.08;79.60;100724.91;5130660;27;20250;-65
2023/08/21 00:36:30;;;;;;;7.20;5.87;;;;;;;26.09;79.97;100733.19;5109588;27;20189;-65
2023/08/21 00:38:55;;;;;;;8.50;5.83;;;;;;;26.08;79.54;100728.66;5090993;28;20525;-65
2023/08/21 00:41:21;;;;;;;8.27;5.50;;;;;;;26.09;79.56;100730.28;5084176;28;20177;-65
2023/08/21 00:43:46;;;;;;;6.60;5.90;;;;;;;26.09;79.15;100735.28;5111488;27;20166;-65
2023/08/21 00:46:12;;;;;;;8.50;5.77;;;;;;;26.08;79.25;100734.44;5104999;27;20173;-65
2023/08/21 00:48:37;;;;;;;6.93;5.87;;;;;;;26.08;79.29;100728.66;5096174;27;20215;-65
2023/08/21 00:51:03;;;;;;;8.67;6.03;;;;;;;26.09;79.89;100732.38;5111391;27;20172;-64
2023/08/21 00:53:29;;;;;;;7.87;6.43;;;;;;;26.08;79.51;100733.59;5094555;28;20185;-65
2023/08/21 00:55:54;;;;;;;6.80;5.53;;;;;;;26.08;79.24;100727.81;5068610;28;20455;-64
2023/08/21 00:58:20;;;;;;;7.07;6.03;;;;;;;26.08;79.36;100731.53;5104323;28;20204;-64
2023/08/21 01:00:46;;;;;;;7.10;5.90;;;;;;;26.08;79.69;100728.66;5104180;28;20178;-64
2023/08/21 01:03:11;;;;;;;7.50;5.47;;;;;;;26.07;78.96;100729.06;5107923;27;20169;-65
2023/08/21 01:05:36;;;;;;;7.00;6.27;;;;;;;26.08;79.09;100736.50;5110900;28;20227;-65
2023/08/21 01:08:04;;;;;;;8.13;5.80;;;;;;;26.07;79.62;100735.69;5113294;27;20194;-65
2023/08/21 01:10:44;;;;;;;6.90;5.70;;;;;;;26.07;79.57;100737.75;5106328;28;20256;-64
2023/08/21 01:13:27;;;;;;;6.57;5.67;;;;;;;26.07;79.02;100734.84;5110428;28;20530;-64
2023/08/21 01:15:53;;;;;;;6.53;5.70;;;;;;;26.08;79.44;100743.13;5107808;27;20781;-65
2023/08/21 01:18:18;;;;;;;7.70;6.03;;;;;;;26.07;79.03;100737.75;5094533;27;20411;-65
2023/08/21 01:20:43;;;;;;;8.30;6.00;;;;;;;26.07;79.15;100744.38;5110944;27;20224;-64
2023/08/21 01:23:09;;;;;;;8.07;6.13;;;;;;;26.06;78.99;100741.88;5129765;27;20164;-64
2023/08/21 01:25:35;;;;;;;7.43;6.17;;;;;;;26.07;79.06;100747.25;5108570;27;20556;-64
2023/08/21 01:28:00;;;;;;;8.30;6.30;;;;;;;26.07;79.53;100750.16;5109150;28;20170;-64
2023/08/21 01:30:26;;;;;;;6.77;5.70;;;;;;;26.06;79.49;100742.72;5092268;27;20188;-65
2023/08/21 01:33:00;;;;;;;7.27;5.90;;;;;;;26.07;78.98;100746.44;5111575;27;20679;-64
2023/08/21 01:35:26;;;;;;;7.20;5.60;;;;;;;26.06;79.26;100742.72;5107596;27;20165;-65
2023/08/21 01:37:51;;;;;;;8.73;6.13;;;;;;;26.06;79.41;100736.94;5073343;28;20940;-65
2023/08/21 01:40:23;;;;;;;7.40;6.37;;;;;;;26.07;78.94;100755.09;5091828;28;20441;-65
2023/08/21 01:42:49;;;;;;;6.80;6.10;;;;;;;26.06;79.32;100754.31;5077804;28;20583;-64
2023/08/21 01:45:14;;;;;;;8.37;5.97;;;;;;;26.06;78.94;100748.53;5125325;27;20505;-64
2023/08/21 01:47:40;;;;;;;8.07;5.93;;;;;;;26.05;79.38;100743.94;5121328;27;20290;-65
2023/08/21 01:50:06;;;;;;;6.83;5.23;;;;;;;26.06;78.63;100750.56;5109197;28;20683;-65
2023/08/21 01:52:31;;;;;;;6.10;5.00;;;;;;;26.05;78.73;100755.53;5109879;28;20170;-64
2023/08/21 01:54:57;;;;;;;9.00;6.57;;;;;;;26.05;78.80;100752.63;5103619;28;21300;-65
2023/08/21 01:57:23;;;;;;;6.20;5.53;;;;;;;26.07;79.11;100749.31;5109533;28;20157;-65
2023/08/21 01:59:48;;;;;;;6.50;5.40;;;;;;;26.04;79.19;100750.19;5106067;28;20182;-64
2023/08/21 02:02:14;;;;;;;6.43;5.30;;;;;;;26.05;79.04;100752.63;5109307;28;20154;-65
2023/08/21 02:04:39;;;;;;;7.30;5.80;;;;;;;26.05;79.24;100755.53;5109255;28;20684;-64
2023/08/21 02:07:05;;;;;;;6.10;5.47;;;;;;;26.05;79.37;100752.63;5076302;28;20541;-65
2023/08/21 02:09:30;;;;;;;6.87;6.20;;;;;;;26.05;78.91;100757.63;5090528;28;21030;-65
2023/08/21 02:11:56;;;;;;;8.83;5.97;;;;;;;26.05;79.22;100752.63;5088605;28;20167;-65
2023/08/21 02:14:21;;;;;;;10.40;6.50;;;;;;;26.05;79.02;100757.63;5069764;28;20185;-64
2023/08/21 02:16:47;;;;;;;6.50;5.40;;;;;;;26.04;79.28;100756.78;5099543;27;20213;-65
2023/08/21 02:19:12;;;;;;;6.00;5.40;;;;;;;26.05;78.83;100757.63;5089139;28;20794;-63
2023/08/21 02:21:38;;;;;;;6.23;5.30;;;;;;;26.04;78.68;100753.88;5125246;27;20406;-65
2023/08/21 02:24:03;;;;;;;8.10;6.43;;;;;;;26.04;79.30;100759.69;5098115;27;20174;-64
2023/08/21 02:26:29;;;;;;;8.13;5.60;;;;;;;26.04;78.97;100761.75;5087454;28;20174;-65
2023/08/21 02:28:54;;;;;;;7.07;5.73;;;;;;;26.04;78.63;100765.47;5071561;28;20219;-65
2023/08/21 02:31:20;;;;;;;6.10;5.30;;;;;;;26.03;78.99;100760.94;5099789;27;20219;-65
2023/08/21 02:33:45;;;;;;;6.73;5.13;;;;;;;26.04;79.05;100758.88;5128575;27;20196;-65
2023/08/21 02:36:11;;;;;;;6.90;5.50;;;;;;;26.04;79.08;100761.75;5117900;27;20186;-64
2023/08/21 02:38:36;;;;;;;7.50;5.80;;;;;;;26.03;78.49;100760.94;5089030;28;20174;-65
2023/08/21 02:41:02;;;;;;;8.03;5.50;;;;;;;26.03;78.43;100771.66;5087155;28;20170;-64
2023/08/21 02:43:27;;;;;;;6.03;5.10;;;;;;;26.03;78.98;100766.72;5072691;28;20186;-64
2023/08/21 02:45:52;;;;;;;6.07;5.13;;;;;;;26.03;78.57;100765.88;5088916;27;20186;-64
2023/08/21 02:48:18;;;;;;;6.87;5.67;;;;;;;26.04;78.52;100767.56;5128080;27;20718;-65
2023/08/21 02:50:43;;;;;;;6.30;5.20;;;;;;;26.02;79.14;100770.84;5123808;27;20655;-64
2023/08/21 02:53:09;;;;;;;7.27;5.47;;;;;;;26.03;79.08;100766.72;5105099;28;20205;-65
2023/08/21 02:55:35;;;;;;;6.27;5.47;;;;;;;26.03;78.87;100771.66;5107541;28;20637;-65
2023/08/21 02:58:00;;;;;;;6.33;4.93;;;;;;;26.02;78.40;100770.84;5094313;28;20177;-65
2023/08/21 03:00:26;;;;;;;6.47;4.90;;;;;;;26.02;78.27;100767.97;5105007;28;20189;-65
2023/08/21 03:02:51;;;;;;;6.30;4.73;;;;;;;26.02;78.47;100761.34;5101016;28;20181;-65
2023/08/21 03:05:16;;;;;;;5.30;4.77;;;;;;;26.01;78.47;100769.22;5110395;28;20169;-65
2023/08/21 03:07:42;;;;;;;6.80;5.30;;;;;;;26.00;78.38;100755.97;5128922;28;20153;-64
2023/08/21 03:10:08;;;;;;;6.47;5.13;;;;;;;26.01;78.76;100768.38;5096306;28;20194;-64
2023/08/21 03:12:34;;;;;;;6.40;4.80;;;;;;;25.99;78.64;100760.13;5086934;28;20178;-65
2023/08/21 03:14:59;;;;;;;7.03;4.90;;;;;;;26.01;78.35;100756.81;5087734;28;20201;-65
2023/08/21 03:17:25;;;;;;;7.63;4.93;;;;;;;26.01;78.42;100759.69;5115521;27;20237;-64
2023/08/21 03:19:50;;;;;;;6.83;5.80;;;;;;;26.00;78.41;100764.66;5132101;27;20281;-64
2023/08/21 03:22:16;;;;;;;5.43;4.93;;;;;;;26.00;78.92;100755.97;5118618;27;20185;-65
2023/08/21 03:24:41;;;;;;;6.30;4.97;;;;;;;26.01;78.40;100760.53;5093744;28;20182;-65
2023/08/21 03:27:06;;;;;;;7.80;5.40;;;;;;;26.00;78.43;100755.97;5073639;28;20174;-63
2023/08/21 03:29:32;;;;;;;6.90;5.37;;;;;;;25.99;78.91;100760.13;5105840;28;21066;-65
2023/08/21 03:31:57;;;;;;;5.20;4.70;;;;;;;25.99;78.24;100754.31;5112475;28;20663;-65
2023/08/21 03:34:23;;;;;;;7.70;4.70;;;;;;;25.99;78.40;100757.22;5110156;27;20518;-63
2023/08/21 03:36:48;;;;;;;5.30;4.57;;;;;;;26.00;78.81;100760.94;5125410;27;20537;-65
2023/08/21 03:39:14;;;;;;;5.93;5.03;;;;;;;25.99;78.99;100751.44;5130980;27;20180;-65
2023/08/21 03:41:39;;;;;;;10.10;4.87;;;;;;;26.01;78.55;100753.91;5093942;28;20742;-65
2023/08/21 03:44:05;;;;;;;8.70;5.43;;;;;;;25.99;78.30;100757.22;5126772;27;20580;-65
2023/08/21 03:46:30;;;;;;;5.60;4.90;;;;;;;26.00;78.83;100760.94;5123066;27;20188;-65
2023/08/21 03:48:55;;;;;;;6.40;5.43;;;;;;;26.00;78.93;100760.94;5132478;27;20235;-65
2023/08/21 03:51:21;;;;;;;6.73;5.03;;;;;;;25.99;78.92;100762.19;5128727;27;20165;-65
2023/08/21 03:53:46;;;;;;;5.43;4.10;;;;;;;25.98;78.80;100758.47;5093593;28;20206;-64
2023/08/21 03:56:12;;;;;;;6.00;5.20;;;;;;;25.98;78.63;100767.16;5090777;28;20646;-63
2023/08/21 03:58:37;;;;;;;5.80;4.97;;;;;;;25.98;78.45;100766.31;5101149;28;20182;-65
2023/08/21 04:01:03;;;;;;;6.40;4.87;;;;;;;25.97;78.44;100756.00;5089876;28;20542;-64
2023/08/21 04:03:28;;;;;;;5.07;4.53;;;;;;;25.97;77.97;100765.50;5091376;28;20217;-65
2023/08/21 04:05:54;;;;;;;5.57;4.70;;;;;;;25.96;78.70;100763.88;5090841;28;20837;-64
2023/08/21 04:08:20;;;;;;;5.67;4.60;;;;;;;25.98;78.03;100763.41;5089537;28;20677;-64
2023/08/21 04:10:45;;;;;;;6.10;5.20;;;;;;;25.97;78.47;100768.41;5057487;28;20175;-64
2023/08/21 04:13:10;;;;;;;6.30;5.23;;;;;;;25.96;78.53;100771.72;5089383;28;20571;-65
2023/08/21 04:15:36;;;;;;;5.40;4.77;;;;;;;25.95;78.30;100767.97;5090126;28;20174;-65
2023/08/21 04:18:01;;;;;;;5.10;4.60;;;;;;;25.96;77.94;100774.59;5109346;27;20196;-65
2023/08/21 04:20:27;;;;;;;5.77;4.77;;;;;;;25.97;78.61;100771.28;5119346;27;20235;-65
2023/08/21 04:22:52;;;;;;;5.93;4.90;;;;;;;25.96;78.05;100777.50;5113619;27;20260;-65
2023/08/21 04:25:18;;;;;;;7.07;4.67;;;;;;;25.96;78.44;100778.34;5131896;27;20173;-63
2023/08/21 04:27:43;;;;;;;8.67;5.00;;;;;;;25.95;78.42;100773.75;5129918;27;20165;-65
2023/08/21 04:30:10;;;;;;;5.30;4.40;;;;;;;25.96;78.51;100769.66;5092917;28;20189;-64
2023/08/21 04:32:35;;;;;;;5.70;5.10;;;;;;;25.96;78.02;100774.59;5091022;28;20257;-65
2023/08/21 04:35:01;;;;;;;7.43;5.53;;;;;;;25.96;78.50;100775.44;5072863;28;20464;-65
2023/08/21 04:37:26;;;;;;;6.03;4.80;;;;;;;25.95;78.10;100775.84;5088464;28;20285;-64
2023/08/21 04:39:53;;;;;;;6.07;5.07;;;;;;;25.94;78.41;100775.03;5091750;27;20178;-65
2023/08/21 04:42:18;;;;;;;6.70;4.70;;;;;;;25.95;77.97;100765.09;5110639;27;20185;-64
2023/08/21 04:44:43;;;;;;;6.00;5.13;;;;;;;25.94;78.47;100774.22;5095064;28;20462;-64
2023/08/21 04:47:22;;;;;;;5.70;5.07;;;;;;;25.93;77.86;100770.47;5117088;27;20235;-64
2023/08/21 04:49:49;;;;;;;5.77;4.90;;;;;;;25.93;78.29;100773.38;5112082;27;20249;-64
2023/08/21 04:52:14;;;;;;;5.33;4.83;;;;;;;25.93;77.83;100773.38;5103561;28;20440;-65
2023/08/21 04:54:40;;;;;;;7.27;5.30;;;;;;;25.94;77.63;100777.91;5103429;27;20460;-64
2023/08/21 04:57:05;;;;;;;5.80;4.70;;;;;;;25.94;77.75;100774.22;5090850;27;20169;-64
2023/08/21 04:59:31;;;;;;;7.73;4.77;;;;;;;25.93;77.73;100782.06;5106412;28;20551;-65
2023/08/21 05:01:57;;;;;;;6.70;4.67;;;;;;;25.93;77.69;100770.47;5105479;28;20202;-64
2023/08/21 05:04:22;;;;;;;7.53;5.67;;;;;;;25.93;77.63;100782.06;5091311;28;20608;-64
2023/08/21 05:06:48;;;;;;;6.37;5.10;;;;;;;25.93;78.24;100779.16;5098270;28;20436;-64
2023/08/21 05:09:13;;;;;;;6.10;5.50;;;;;;;25.93;78.07;100789.91;5088997;28;20511;-65
2023/08/21 05:11:38;;;;;;;8.63;5.30;;;;;;;25.93;78.26;100789.91;5089814;28;20737;-64
2023/08/21 05:14:04;;;;;;;6.07;5.10;;;;;;;25.93;78.17;100804.38;5091307;28;20660;-65
2023/08/21 05:16:29;;;;;;;5.40;4.63;;;;;;;25.92;77.71;100794.88;5116282;27;20200;-64
2023/08/21 05:18:55;;;;;;;5.43;4.57;;;;;;;25.93;77.61;100801.47;5111529;27;20193;-64
2023/08/21 05:21:20;;;;;;;6.07;5.20;;;;;;;25.93;77.61;100808.09;5110471;28;20189;-64
2023/08/21 05:23:46;;;;;;;7.07;5.83;;;;;;;25.93;78.07;100808.09;5107081;28;20223;-65
2023/08/21 05:26:11;;;;;;;5.73;5.13;;;;;;;25.92;78.11;100806.47;5072605;28;20655;-64
2023/08/21 05:28:37;;;;;;;5.70;4.70;;;;;;;25.91;78.13;100810.59;5090325;28;20556;-64
2023/08/21 05:31:02;;;;;;;5.67;4.90;;;;;;;25.93;78.05;100815.94;5093025;28;20269;-64
2023/08/21 05:33:27;;;;;;;6.10;4.90;;;;;;;25.91;77.66;100810.59;5078180;27;20247;-64
2023/08/21 05:35:53;;;;;;;5.50;4.77;;;;;;;25.92;78.14;100817.19;5109012;27;20174;-65
2023/08/21 05:38:19;;;;;;;5.23;4.43;;;;;;;25.93;78.01;100813.03;5106730;28;20178;-64
2023/08/21 05:40:44;;;;;;;6.90;5.70;;;;;;;25.92;78.19;100812.25;5109105;28;20609;-64
2023/08/21 05:43:10;;;;;;;7.90;5.30;;;;;;;25.93;77.65;100818.84;5094690;28;20183;-64
2023/08/21 05:45:35;;;;;;;6.00;5.13;;;;;;;25.91;78.05;100816.38;5120616;27;20180;-65
2023/08/21 05:48:00;;;;;;;5.87;5.13;;;;;;;25.91;77.88;100816.38;5102357;27;20192;-65
2023/08/21 05:50:26;;;;;;;6.23;5.37;;;;;;;25.92;77.63;100818.03;5070736;28;20202;-65
2023/08/21 05:52:54;;;;;;;8.70;4.90;;;;;;;25.91;77.64;100816.38;5089157;28;20182;-64
2023/08/21 05:55:19;;;;;;;5.50;4.73;;;;;;;25.92;77.96;100820.94;5100978;28;20528;-65
2023/08/21 05:57:45;;;;;;;5.57;4.93;;;;;;;25.93;78.13;100824.63;5108543;28;20404;-64
2023/08/21 06:00:12;;;;;;;7.63;5.40;;;;;;;25.92;78.22;100822.97;5108652;28;20178;-65
2023/08/21 06:02:37;;;;;;;6.23;4.97;;;;;;;25.92;77.42;100826.72;5107051;28;20193;-64
2023/08/21 06:05:03;;;;;;;6.60;4.93;;;;;;;25.92;78.09;100829.59;5090339;28;20435;-64
2023/08/21 06:07:29;;;;;;;8.00;5.17;;;;;;;25.92;78.27;100829.59;5088435;28;20514;-64
2023/08/21 06:09:54;;;;;;;6.40;5.70;;;;;;;25.92;77.68;100831.66;5108918;28;20173;-64
2023/08/21 06:12:19;;;;;;;6.20;5.03;;;;;;;25.92;78.22;100838.28;5091138;28;20181;-65
2023/08/21 06:14:45;;;;;;;6.20;5.20;;;;;;;25.92;77.60;100834.56;5079399;28;20646;-65
2023/08/21 06:17:10;;;;;;;7.33;5.30;;;;;;;25.91;77.63;100838.66;5112075;27;20711;-65
2023/08/21 06:19:36;;;;;;;7.37;4.70;;;;;;;25.92;78.19;100843.22;5106859;28;20580;-65
2023/08/21 06:22:01;;;;;;;5.93;5.03;;;;;;;25.92;78.34;100840.34;5109269;28;20219;-64
2023/08/21 06:24:27;;;;;;;5.27;4.77;;;;;;;25.92;77.67;100846.97;5093224;28;20182;-64
2023/08/21 06:26:53;;;;;;;7.57;5.47;;;;;;;25.91;78.19;100845.31;5088710;28;20174;-64
2023/08/21 06:29:20;;;;;;;7.80;5.20;;;;;;;25.92;77.74;100846.13;5088892;28;20194;-64
2023/08/21 06:31:46;;;;;;;7.90;5.10;;;;;;;25.91;77.93;100848.22;5087831;28;20522;-64
2023/08/21 06:34:15;;;;;;;7.00;5.53;;;;;;;25.91;77.86;100854.00;5090764;28;20538;-62
2023/08/21 06:36:40;;;;;;;6.50;5.20;;;;;;;25.92;78.11;100852.75;5063555;28;20188;-65
2023/08/21 06:39:05;;;;;;;7.10;5.57;;;;;;;25.92;77.84;100849.84;5081526;28;20444;-64
2023/08/21 06:41:31;;;;;;;5.77;5.17;;;;;;;25.92;77.77;100857.69;5088296;28;20174;-64
2023/08/21 06:43:57;;;;;;;6.67;5.20;;;;;;;25.92;78.22;100852.75;5092217;28;20243;-65
2023/08/21 06:46:22;;;;;;;6.90;5.40;;;;;;;25.91;78.23;100851.09;5096563;27;20187;-64
2023/08/21 06:48:50;;;;;;;7.27;5.57;;;;;;;25.92;78.31;100861.44;5109484;28;20442;-63
2023/08/21 06:51:15;;;;;;;6.53;5.00;;;;;;;25.92;77.91;100869.28;5127262;27;20172;-64
2023/08/21 06:53:41;;;;;;;7.80;5.90;;;;;;;25.92;78.00;100854.81;5113230;27;20463;-64
2023/08/21 06:56:06;;;;;;;6.67;5.60;;;;;;;25.92;78.63;100857.69;5106750;28;20166;-64
2023/08/21 06:58:32;;;;;;;7.80;5.10;;;;;;;25.92;78.82;100857.69;5086476;28;20174;-64
2023/08/21 07:00:57;;;;;;;12.53;5.87;;;;;;;25.92;78.56;100854.81;5107009;28;20906;-64
2023/08/21 07:03:23;;;;;;;7.60;5.73;;;;;;;25.93;78.05;100865.13;5104752;28;20180;-64
2023/08/21 07:05:56;;;;;;;6.87;6.00;;;;;;;25.92;78.02;100867.22;5090171;28;20174;-64
2023/08/21 07:08:22;;;;;;;7.93;6.20;;;;;;;25.92;78.51;100864.31;5102379;28;20637;-64
2023/08/21 07:10:47;;;;;;;7.70;5.87;;;;;;;25.93;78.58;100873.81;5088255;28;20427;-64
2023/08/21 07:13:13;;;;;;;7.00;5.90;;;;;;;25.93;78.43;100865.13;5088482;28;20896;-64
2023/08/21 07:15:38;;;;;;;7.67;5.90;;;;;;;25.92;78.23;100863.50;5090362;28;20242;-64
2023/08/21 07:18:04;;;;;;;8.00;6.27;;;;;;;25.92;78.39;100864.31;5087251;28;20226;-64
2023/08/21 07:20:29;;;;;;;6.90;6.10;;;;;;;25.92;78.83;100870.13;5086807;28;20222;-64
2023/08/21 07:22:55;;;;;;;6.33;5.73;;;;;;;25.92;78.65;100875.06;5093233;28;20192;-64
2023/08/21 07:25:20;;;;;;;7.93;5.33;;;;;;;25.93;78.75;100870.91;5090348;28;20182;-63
2023/08/21 07:27:45;;;;;;;9.00;6.03;;;;;;;25.93;78.30;100870.91;5108421;28;20189;-64
2023/08/21 07:30:11;;;;;;;6.03;4.87;;;;;;;25.93;78.18;100873.81;5093153;28;20202;-64
2023/08/21 07:32:36;;;;;;;7.17;5.73;;;;;;;25.93;78.87;100877.53;5108288;28;20181;-64
2023/08/21 07:35:02;;;;;;;7.53;6.33;;;;;;;25.93;78.26;100865.13;5128681;28;20189;-64
2023/08/21 07:37:27;;;;;;;9.73;6.27;;;;;;;25.93;78.79;100871.75;5120619;28;20222;-64
2023/08/21 07:39:53;;;;;;;6.97;6.10;;;;;;;25.94;78.14;100861.03;5093972;28;20174;-64
2023/08/21 07:42:19;;;;;;;7.70;6.53;;;;;;;25.93;78.66;100865.13;5089835;28;20194;-63
2023/08/21 07:44:45;;;;;;;7.53;5.90;;;;;;;25.94;78.60;100861.03;5095150;28;20203;-63
2023/08/21 07:47:10;;;;;;;7.30;6.40;;;;;;;25.94;78.56;100867.63;5108884;28;20180;-64
2023/08/21 07:49:35;;;;;;;9.57;6.27;;;;;;;25.94;78.61;100866.81;5119124;28;20197;-64
2023/08/21 07:52:03;;;;;;;8.03;6.73;;;;;;;25.94;78.15;100867.63;5105508;28;20691;-64
2023/08/21 07:54:28;;;;;;;11.37;7.20;;;;;;;25.95;78.19;100869.25;5107630;28;20237;-65
2023/08/21 07:56:53;;;;;;;9.13;5.90;;;;;;;25.94;78.36;100869.69;5095787;28;20959;-64
2023/08/21 07:59:19;;;;;;;8.87;7.50;;;;;;;25.95;78.13;100872.16;5087094;28;20178;-65
2023/08/21 08:01:45;;;;;;;9.30;6.10;;;;;;;25.95;78.24;100868.44;5087585;28;20190;-65
2023/08/21 08:04:10;;;;;;;10.10;7.03;;;;;;;25.96;78.34;100875.88;5088909;28;20427;-62
2023/08/21 08:06:36;;;;;;;7.40;6.57;;;;;;;25.96;78.52;100882.50;5076096;28;20190;-64
2023/08/21 08:09:03;;;;;;;10.30;7.20;;;;;;;25.96;78.09;100873.84;5089996;28;20224;-64
2023/08/21 08:11:29;;;;;;;10.63;7.57;;;;;;;25.96;78.34;100882.50;5088334;28;20178;-65
2023/08/21 08:13:55;;;;;;;11.10;8.37;;;;;;;25.97;78.60;100881.25;5109317;28;20469;-65
2023/08/21 08:16:21;;;;;;;18.90;10.17;;;;;;;25.98;78.65;100874.22;5106822;27;20807;-65
2023/08/21 08:18:46;;;;;;;9.43;7.43;;;;;;;25.97;78.75;100878.38;5099454;27;20440;-65
2023/08/21 08:21:12;;;;;;;12.87;9.03;;;;;;;25.97;78.80;100875.47;5090914;28;20174;-65
2023/08/21 08:23:37;;;;;;;14.73;9.37;;;;;;;25.99;78.38;100875.06;5091235;28;20170;-64
2023/08/21 08:26:04;;;;;;;13.03;9.63;;;;;;;25.99;79.37;100881.66;5092766;28;20253;-65
2023/08/21 08:28:29;;;;;;;15.40;8.40;;;;;;;26.00;79.32;100870.91;5091076;28;20435;-64
2023/08/21 08:30:55;;;;;;;14.20;8.90;;;;;;;26.01;79.20;100879.19;5104876;27;20632;-64
2023/08/21 08:33:20;;;;;;;16.60;9.43;;;;;;;26.04;80.10;100884.13;5090614;28;20198;-65
2023/08/21 08:35:46;;;;;;;12.87;9.27;;;;;;;26.02;80.00;100877.94;5092127;28;20173;-65
2023/08/21 08:38:11;;;;;;;13.53;9.77;;;;;;;26.05;80.76;100887.84;5087647;28;20251;-64
2023/08/21 08:40:42;;;;;;;15.57;8.97;;;;;;;26.05;80.68;100874.19;5111968;27;20245;-66
2023/08/21 08:43:07;;;;;;;15.30;9.83;;;;;;;26.03;80.15;100876.69;5061127;28;20179;-64
2023/08/21 08:45:33;;;;;;;10.87;8.90;;;;;;;26.03;80.65;100875.84;5098650;27;20879;-65
2023/08/21 08:48:00;;;;;;;12.03;9.10;;;;;;;26.04;80.45;100866.75;5090967;27;20248;-65
2023/08/21 08:50:25;;;;;;;13.70;8.97;;;;;;;26.05;80.46;100871.28;5121110;27;20277;-64
2023/08/21 08:52:50;;;;;;;11.47;9.03;;;;;;;26.10;80.97;100867.16;5092776;28;20448;-63
2023/08/21 08:55:16;;;;;;;18.83;10.10;;;;;;;26.12;82.45;100876.25;5099061;27;20205;-64
2023/08/21 08:57:41;;;;;;;15.73;10.60;;;;;;;26.12;82.98;100870.44;5100261;27;20281;-66
2023/08/21 09:00:07;;;;;;;19.23;10.63;;;;;;;26.12;81.98;100874.19;5108798;27;20205;-65
2023/08/21 09:02:33;;;;;;;17.77;10.73;;;;;;;26.11;82.35;100874.59;5095043;27;20702;-65
2023/08/21 09:04:58;;;;;;;19.77;10.77;;;;;;;26.21;83.94;100877.47;5079623;28;20444;-66
2023/08/21 09:07:24;;;;;;;18.13;10.20;;;;;;;26.21;85.33;100868.78;5098707;27;20186;-65
2023/08/21 09:09:52;;;;;;;21.90;11.83;;;;;;;26.22;84.20;100870.41;5098876;27;20209;-64
2023/08/21 09:12:17;;;;;;;15.10;11.17;;;;;;;26.20;83.98;100867.09;5108421;28;20494;-65
2023/08/21 09:14:44;;;;;;;22.50;11.30;;;;;;;26.17;83.94;100867.13;5095378;28;21097;-65
2023/08/21 09:17:09;;;;;;;19.60;11.43;;;;;;;26.15;83.63;100869.63;5090985;27;21032;-65
2023/08/21 09:19:35;;;;;;;15.50;10.50;;;;;;;26.13;83.51;100867.16;5092325;28;20467;-65
2023/08/21 09:22:10;;;;;;;13.80;10.60;;;;;;;26.12;83.54;100868.41;5071318;28;20179;-65
2023/08/21 09:24:37;;;;;;;26.80;11.60;;;;;;;26.12;83.06;100868.41;5090100;28;20180;-65
2023/08/21 09:27:04;;;;;;;15.47;10.90;;;;;;;26.11;82.69;100863.84;5109382;28;20432;-65
2023/08/21 09:29:40;;;;;;;19.70;10.47;;;;;;;26.12;83.34;100861.78;5109355;28;21310;-65
2023/08/21 09:32:06;;;;;;;17.17;11.07;;;;;;;26.12;82.87;100867.56;5111200;27;20449;-65
2023/08/21 09:34:36;;;;;;;16.27;10.47;;;;;;;26.11;83.07;100869.66;5107379;27;20456;-65
2023/08/21 09:37:04;;;;;;;17.30;9.67;;;;;;;26.10;82.42;100865.06;5090178;28;20194;-65
2023/08/21 09:39:33;;;;;;;14.23;10.63;;;;;;;26.11;82.32;100860.97;5099786;28;20931;-65
2023/08/21 09:41:59;;;;;;;13.03;10.67;;;;;;;26.11;82.28;100860.13;5087971;28;20428;-65
2023/08/21 09:44:24;;;;;;;14.67;10.53;;;;;;;26.11;82.24;100855.16;5089008;28;20424;-65
2023/08/21 09:46:50;;;;;;;12.33;9.60;;;;;;;26.10;82.54;100856.38;5107153;27;20742;-63
2023/08/21 09:49:16;;;;;;;14.83;10.60;;;;;;;26.12;82.27;100855.97;5128430;27;20305;-65
2023/08/21 09:51:44;;;;;;;20.97;10.27;;;;;;;26.11;82.15;100846.50;5056024;28;20177;-64
2023/08/21 09:54:10;;;;;;;13.30;10.07;;;;;;;26.10;82.09;100847.72;5088903;28;20466;-65
2023/08/21 09:56:35;;;;;;;14.97;10.83;;;;;;;26.12;82.36;100844.41;5090665;28;20415;-64
2023/08/21 09:59:01;;;;;;;11.20;9.33;;;;;;;26.10;82.11;100841.91;5108728;28;20158;-64
2023/08/21 10:01:26;;;;;;;12.13;9.73;;;;;;;26.10;81.96;100841.91;5082924;28;20178;-64
2023/08/21 10:03:52;;;;;;;13.00;9.63;;;;;;;26.10;82.46;100833.22;5088352;28;20216;-65
2023/08/21 10:06:20;;;;;;;14.40;9.93;;;;;;;26.10;82.04;100836.13;5070095;28;20159;-65
2023/08/21 10:08:46;;;;;;;12.00;10.27;;;;;;;26.10;82.33;100839.03;5088216;28;20167;-64
2023/08/21 10:11:11;;;;;;;13.77;9.70;;;;;;;26.11;82.26;100839.88;5095663;28;20454;-65
2023/08/21 10:13:37;;;;;;;13.67;9.27;;;;;;;26.11;82.35;100836.97;5089082;28;20236;-65
2023/08/21 10:16:03;;;;;;;10.50;8.97;;;;;;;26.11;81.98;100834.06;5092296;27;20183;-65
2023/08/21 10:18:33;;;;;;;11.13;8.63;;;;;;;26.10;82.43;100830.34;5087015;28;20434;-64
2023/08/21 10:21:15;;;;;;;11.67;9.17;;;;;;;26.11;81.60;100819.59;5109182;28;20568;-65
2023/08/21 10:23:41;;;;;;;12.30;9.00;;;;;;;26.12;81.62;100818.34;5099771;28;20446;-64
2023/08/21 10:26:07;;;;;;;14.40;9.20;;;;;;;26.12;82.19;100821.25;5100944;28;20506;-64
2023/08/21 10:28:52;;;;;;;11.60;9.10;;;;;;;26.12;82.01;100815.44;5108031;28;20491;-65
2023/08/21 10:31:43;;;;;;;10.73;9.60;;;;;;;26.11;82.18;100817.53;5107142;28;20404;-65
2023/08/21 10:34:10;;;;;;;12.23;9.20;;;;;;;26.11;81.62;100808.03;5070448;28;20495;-63
2023/08/21 10:36:44;;;;;;;13.33;9.33;;;;;;;26.12;81.86;100813.41;5120954;27;20493;-65
2023/08/21 10:39:25;;;;;;;13.53;9.70;;;;;;;26.12;81.95;100807.59;5091757;28;20427;-65
2023/08/21 10:41:55;;;;;;;11.63;8.20;;;;;;;26.11;81.95;100808.84;5086934;28;20760;-64
2023/08/21 10:44:41;;;;;;;11.10;8.77;;;;;;;26.11;81.47;100803.06;5100735;27;20516;-64
2023/08/21 10:47:23;;;;;;;14.73;9.20;;;;;;;26.12;81.41;100810.50;5118554;27;20433;-65
2023/08/21 10:49:53;;;;;;;12.20;9.60;;;;;;;26.12;81.73;100804.72;5077214;28;20448;-65
2023/08/21 10:52:36;;;;;;;10.90;8.40;;;;;;;26.12;81.12;100810.50;5095195;28;20424;-65
2023/08/21 10:55:03;;;;;;;11.80;8.93;;;;;;;26.14;81.38;100812.97;5091973;28;20450;-65
2023/08/21 10:57:30;;;;;;;11.73;8.77;;;;;;;26.14;81.72;100810.09;5104268;27;20428;-66
2023/08/21 11:00:00;;;;;;;12.50;8.80;;;;;;;26.13;81.62;100806.34;5099168;28;20435;-65
2023/08/21 11:02:28;;;;;;;10.97;8.67;;;;;;;26.12;81.65;100798.09;5086079;28;20432;-65
2023/08/21 11:04:54;;;;;;;11.27;8.70;;;;;;;26.13;81.01;100793.94;5090050;28;20525;-65
2023/08/21 11:07:20;;;;;;;11.70;9.40;;;;;;;26.13;81.09;100797.66;5087244;28;20432;-65
2023/08/21 11:09:46;;;;;;;12.77;8.90;;;;;;;26.13;81.56;100797.66;5088701;28;20879;-65
2023/08/21 11:12:13;;;;;;;10.40;9.30;;;;;;;26.13;80.90;100797.66;5089909;28;20435;-65
2023/08/21 11:14:38;;;;;;;15.33;9.40;;;;;;;26.15;81.31;100797.25;5086013;28;20224;-65
2023/08/21 11:17:04;;;;;;;11.17;9.40;;;;;;;26.13;81.23;100789.00;5111567;28;20438;-65